Time;durP1;ratioP1;P1;durP2;ratioP2;P2;SDS_P1;SDS_P2;PMS_P1;PMS_P2;Temp;Humidity;BMP_temperature;BMP_pressure;BME280_temperature;BME280_humidity;BME280_pressure;Samples;Min_cycle;Max_cycle;Signal;HPM_P1;HPM_P2
2020/12/12 00:01:29;;;;;;;9.80;7.10;;;;;;;6.38;69.02;94520.00;5049011;28;20227;-66
2020/12/12 00:03:55;;;;;;;9.63;7.00;;;;;;;6.34;69.02;94515.38;5075622;28;20617;-66
2020/12/12 00:06:21;;;;;;;7.33;6.03;;;;;;;6.47;68.85;94518.06;5062313;28;20197;-68
2020/12/12 00:08:47;;;;;;;10.20;7.17;;;;;;;6.27;69.16;94508.34;5065812;28;20211;-66
2020/12/12 00:11:13;;;;;;;8.40;6.50;;;;;;;6.17;69.44;94510.50;5073306;28;20815;-67
2020/12/12 00:13:39;;;;;;;8.70;6.13;;;;;;;6.32;69.06;94512.16;5067080;28;20210;-65
2020/12/12 00:16:06;;;;;;;9.23;6.90;;;;;;;6.25;69.11;94512.94;5070513;28;20286;-66
2020/12/12 00:18:33;;;;;;;11.63;6.83;;;;;;;6.37;68.93;94513.19;5068953;28;20186;-67
2020/12/12 00:20:59;;;;;;;8.70;6.50;;;;;;;6.37;68.68;94507.19;5064017;28;20462;-65
2020/12/12 00:23:24;;;;;;;9.70;6.50;;;;;;;6.48;68.54;94509.25;5074393;28;20424;-65
2020/12/12 00:25:51;;;;;;;7.83;6.03;;;;;;;6.40;68.60;94499.81;5074136;28;20926;-65
2020/12/12 00:28:17;;;;;;;6.87;5.93;;;;;;;6.46;68.39;94503.44;5055875;28;20182;-64
2020/12/12 00:30:42;;;;;;;7.97;6.27;;;;;;;6.40;68.56;94507.63;5055927;28;20432;-67
2020/12/12 00:33:08;;;;;;;8.47;6.47;;;;;;;6.37;68.84;94497.59;5063278;28;20206;-67
2020/12/12 00:35:34;;;;;;;7.90;6.23;;;;;;;6.36;68.85;94500.41;5070526;28;20612;-66
2020/12/12 00:38:00;;;;;;;9.63;6.50;;;;;;;6.20;69.09;94499.69;5067313;28;20234;-67
2020/12/12 00:40:25;;;;;;;8.73;6.47;;;;;;;6.35;68.73;94499.59;5073112;28;20263;-65
2020/12/12 00:42:51;;;;;;;8.70;6.40;;;;;;;6.42;68.41;94497.03;5073113;28;20233;-66
2020/12/12 00:45:16;;;;;;;9.53;6.50;;;;;;;6.51;68.12;94490.66;5073628;28;20194;-64
2020/12/12 00:47:42;;;;;;;8.13;5.97;;;;;;;6.61;67.73;94493.72;5070476;28;20178;-65
2020/12/12 00:50:08;;;;;;;9.10;6.50;;;;;;;6.35;68.20;94484.00;5071480;28;20181;-65
2020/12/12 00:52:33;;;;;;;9.77;6.50;;;;;;;6.45;68.37;94489.66;5070540;28;20255;-67
2020/12/12 00:54:59;;;;;;;9.40;6.67;;;;;;;6.30;69.07;94484.53;5066246;28;20182;-66
2020/12/12 00:57:25;;;;;;;8.40;6.77;;;;;;;6.12;69.39;94489.47;5071950;28;20481;-65
2020/12/12 00:59:50;;;;;;;8.20;6.40;;;;;;;6.42;68.71;94489.22;5072704;28;20182;-66
2020/12/12 01:02:16;;;;;;;10.17;7.30;;;;;;;6.50;68.39;94485.63;5072021;28;20198;-65
2020/12/12 01:04:42;;;;;;;9.27;6.83;;;;;;;6.41;68.45;94493.63;5073656;28;20185;-67
2020/12/12 01:07:07;;;;;;;9.00;6.83;;;;;;;6.49;68.81;94495.25;5071945;28;20175;-65
2020/12/12 01:09:33;;;;;;;9.07;6.97;;;;;;;6.35;68.63;94493.56;5064914;28;20607;-65
2020/12/12 01:11:59;;;;;;;9.73;6.23;;;;;;;6.43;68.73;94502.03;5072541;28;20210;-65
2020/12/12 01:14:25;;;;;;;9.40;6.90;;;;;;;6.29;69.28;94497.75;5073438;28;20235;-67
2020/12/12 01:16:50;;;;;;;8.90;6.73;;;;;;;6.47;68.55;94506.88;5074696;28;20293;-67
2020/12/12 01:19:16;;;;;;;9.13;5.83;;;;;;;6.42;68.38;94504.84;5073819;28;20197;-65
2020/12/12 01:21:42;;;;;;;10.93;6.90;;;;;;;6.37;68.49;94513.19;5072763;28;20194;-65
2020/12/12 01:24:08;;;;;;;8.23;7.10;;;;;;;6.50;67.93;94511.66;5073778;28;20646;-65
2020/12/12 01:26:33;;;;;;;7.60;5.63;;;;;;;6.53;68.08;94517.31;5073090;28;20564;-65
2020/12/12 01:28:59;;;;;;;11.07;7.03;;;;;;;6.38;68.40;94509.59;5072369;28;20194;-72
2020/12/12 01:31:26;;;;;;;8.00;6.10;;;;;;;6.54;68.12;94513.72;5071475;28;20194;-64
2020/12/12 01:33:52;;;;;;;7.63;6.40;;;;;;;6.55;67.71;94514.50;5072103;28;20511;-65
2020/12/12 01:36:17;;;;;;;8.20;6.37;;;;;;;6.45;67.78;94520.03;5073001;28;20541;-66
2020/12/12 01:38:43;;;;;;;8.03;6.20;;;;;;;6.44;68.35;94521.03;5067659;28;20438;-65
2020/12/12 01:41:09;;;;;;;9.37;7.00;;;;;;;6.42;68.50;94528.25;5072668;28;20194;-66
2020/12/12 01:43:35;;;;;;;8.80;6.30;;;;;;;6.51;67.96;94526.28;5069934;28;20171;-66
2020/12/12 01:46:00;;;;;;;6.60;5.87;;;;;;;6.52;67.95;94522.69;5067629;28;20187;-67
2020/12/12 01:48:26;;;;;;;6.73;5.80;;;;;;;6.50;68.26;94522.06;5071847;28;20186;-66
2020/12/12 01:50:52;;;;;;;8.23;6.80;;;;;;;6.33;67.98;94522.41;5070238;28;20184;-66
2020/12/12 01:53:19;;;;;;;7.63;6.03;;;;;;;6.25;68.70;94519.94;5071461;28;20222;-67
2020/12/12 01:55:48;;;;;;;7.80;6.00;;;;;;;6.15;68.95;94528.09;5071981;28;20231;-66
2020/12/12 01:58:15;;;;;;;8.77;5.77;;;;;;;6.23;68.97;94522.72;5072293;28;20846;-66
2020/12/12 02:00:41;;;;;;;7.87;6.03;;;;;;;6.04;69.53;94520.81;5070475;28;20440;-66
2020/12/12 02:03:08;;;;;;;8.00;6.30;;;;;;;6.09;69.80;94528.84;5063116;28;20441;-65
2020/12/12 02:05:42;;;;;;;9.17;6.97;;;;;;;6.32;69.07;94517.38;5070749;28;20420;-66
2020/12/12 02:08:09;;;;;;;6.83;5.53;;;;;;;6.32;68.58;94517.38;5066520;28;20445;-66
2020/12/12 02:10:36;;;;;;;7.93;5.93;;;;;;;6.38;68.33;94519.22;5068768;28;20452;-66
2020/12/12 02:13:05;;;;;;;8.10;6.27;;;;;;;6.28;69.05;94522.97;5071514;28;20783;-66
2020/12/12 02:15:31;;;;;;;8.43;6.03;;;;;;;6.40;68.78;94518.03;5072540;28;20452;-64
2020/12/12 02:17:57;;;;;;;8.37;6.37;;;;;;;6.16;68.85;94527.09;5072151;28;20421;-64
2020/12/12 02:20:23;;;;;;;8.10;5.67;;;;;;;6.36;68.83;94510.78;5073346;28;20269;-66
2020/12/12 02:22:49;;;;;;;6.87;5.50;;;;;;;6.49;68.61;94523.88;5075157;28;20444;-64
2020/12/12 02:25:15;;;;;;;13.23;6.77;;;;;;;6.41;68.43;94519.63;5071646;28;20486;-64
2020/12/12 02:27:40;;;;;;;7.30;6.00;;;;;;;6.43;68.37;94520.25;5070519;28;20261;-67
2020/12/12 02:30:07;;;;;;;7.60;6.07;;;;;;;6.41;68.02;94513.63;5071531;28;20178;-64
2020/12/12 02:32:34;;;;;;;10.13;6.23;;;;;;;6.45;67.97;94520.03;5072796;28;20552;-64
2020/12/12 02:35:01;;;;;;;7.60;6.23;;;;;;;6.47;68.16;94506.88;5075027;28;20421;-65
2020/12/12 02:37:27;;;;;;;7.60;5.97;;;;;;;6.54;67.71;94500.69;5066729;28;20460;-68
2020/12/12 02:39:52;;;;;;;6.97;6.27;;;;;;;6.55;67.80;94504.88;5066724;28;20444;-66
2020/12/12 02:42:18;;;;;;;8.90;6.20;;;;;;;6.52;68.01;94509.66;5070919;28;20198;-66
2020/12/12 02:44:44;;;;;;;7.37;6.10;;;;;;;6.57;67.81;94508.09;5053189;28;20198;-65
2020/12/12 02:47:10;;;;;;;7.17;5.90;;;;;;;6.60;67.54;94506.94;5067143;28;20231;-65
2020/12/12 02:49:35;;;;;;;9.83;7.00;;;;;;;6.60;67.41;94507.72;5070077;28;20182;-68
2020/12/12 02:52:01;;;;;;;11.63;6.90;;;;;;;6.66;67.41;94507.94;5066248;28;20645;-65
2020/12/12 02:54:27;;;;;;;7.50;6.33;;;;;;;6.67;67.29;94509.56;5071420;28;20281;-65
2020/12/12 02:56:52;;;;;;;9.63;7.10;;;;;;;6.56;67.29;94508.31;5070744;28;20242;-67
2020/12/12 02:59:18;;;;;;;8.20;6.40;;;;;;;6.61;67.08;94511.94;5071290;28;20190;-66
2020/12/12 03:01:44;;;;;;;8.47;6.90;;;;;;;6.53;67.51;94512.09;5071136;28;20205;-66
2020/12/12 03:04:10;;;;;;;9.50;6.90;;;;;;;6.45;67.80;94510.47;5071479;28;20178;-67
2020/12/12 03:06:37;;;;;;;10.53;7.17;;;;;;;6.64;67.69;94508.13;5073993;28;20312;-65
2020/12/12 03:09:04;;;;;;;8.33;6.80;;;;;;;6.58;67.58;94514.13;5066884;28;20504;-68
2020/12/12 03:11:29;;;;;;;10.57;7.00;;;;;;;6.65;67.51;94511.53;5075439;28;20437;-66
2020/12/12 03:13:55;;;;;;;12.43;6.87;;;;;;;6.70;67.21;94519.56;5075376;28;21019;-66
2020/12/12 03:16:21;;;;;;;9.93;7.03;;;;;;;6.72;66.92;94515.78;5074678;28;20742;-68
2020/12/12 03:18:46;;;;;;;8.83;7.17;;;;;;;6.78;67.16;94518.59;5074329;28;20255;-65
2020/12/12 03:21:12;;;;;;;11.60;7.30;;;;;;;6.74;66.91;94507.78;5074625;28;20183;-65
2020/12/12 03:23:38;;;;;;;9.37;7.50;;;;;;;6.73;66.98;94511.38;5075100;28;20289;-66
2020/12/12 03:26:04;;;;;;;10.40;8.20;;;;;;;6.56;66.93;94522.09;5074910;28;20190;-67
2020/12/12 03:28:29;;;;;;;9.90;7.60;;;;;;;6.56;67.46;94516.91;5066222;28;20609;-66
2020/12/12 03:30:55;;;;;;;12.60;8.30;;;;;;;6.55;66.94;94519.69;5075308;28;20178;-65
2020/12/12 03:33:21;;;;;;;11.23;7.63;;;;;;;6.58;67.16;94525.31;5074974;28;20186;-65
2020/12/12 03:35:47;;;;;;;11.00;7.80;;;;;;;6.23;67.94;94525.34;5067020;28;20238;-66
2020/12/12 03:38:13;;;;;;;10.53;8.30;;;;;;;6.44;67.65;94519.25;5069584;28;20178;-64
2020/12/12 03:40:38;;;;;;;11.70;8.03;;;;;;;6.54;67.29;94529.31;5074754;28;20788;-67
2020/12/12 03:43:04;;;;;;;11.10;8.50;;;;;;;6.54;67.14;94518.91;5074579;28;20198;-67
2020/12/12 03:45:30;;;;;;;11.53;8.60;;;;;;;6.60;67.27;94518.13;5072029;28;20191;-66
2020/12/12 03:47:56;;;;;;;12.90;8.60;;;;;;;6.61;67.00;94524.94;5071255;28;20187;-64
2020/12/12 03:50:27;;;;;;;12.13;9.17;;;;;;;6.75;66.81;94527.59;5067986;28;20679;-66
2020/12/12 03:52:56;;;;;;;12.57;9.07;;;;;;;6.74;66.71;94529.38;5073908;28;20445;-67
2020/12/12 03:55:22;;;;;;;13.20;8.53;;;;;;;6.56;67.39;94527.31;5074194;28;20448;-65
2020/12/12 03:57:48;;;;;;;12.33;9.20;;;;;;;6.69;66.55;94525.75;5074148;28;20420;-66
2020/12/12 04:00:14;;;;;;;11.67;8.80;;;;;;;6.69;66.84;94525.75;5074403;28;20950;-67
2020/12/12 04:02:39;;;;;;;13.40;9.27;;;;;;;6.67;67.20;94536.38;5074228;28;20244;-66
2020/12/12 04:05:05;;;;;;;12.90;8.77;;;;;;;6.57;67.16;94534.13;5074723;28;20667;-65
2020/12/12 04:07:31;;;;;;;13.67;9.50;;;;;;;6.71;66.94;94534.19;5073269;28;20193;-66
2020/12/12 04:09:56;;;;;;;12.57;9.13;;;;;;;6.70;67.05;94532.56;5067546;28;20232;-65
2020/12/12 04:12:22;;;;;;;12.07;8.70;;;;;;;6.80;66.88;94533.03;5073381;28;20225;-65
2020/12/12 04:14:48;;;;;;;11.60;8.50;;;;;;;6.79;66.98;94535.81;5072657;28;20261;-68
2020/12/12 04:17:13;;;;;;;11.73;8.47;;;;;;;6.83;66.72;94531.84;5072736;28;20206;-65
2020/12/12 04:19:39;;;;;;;11.07;8.50;;;;;;;6.83;67.01;94543.03;5073688;28;20183;-65
2020/12/12 04:22:05;;;;;;;9.87;8.40;;;;;;;6.89;66.45;94537.06;5074379;28;20217;-66
2020/12/12 04:24:30;;;;;;;11.97;9.30;;;;;;;6.83;66.77;94539.66;5066700;28;20512;-66
2020/12/12 04:26:56;;;;;;;11.57;8.93;;;;;;;6.86;66.88;94534.84;5064158;28;20225;-63
2020/12/12 04:29:22;;;;;;;11.80;9.10;;;;;;;6.74;66.89;94539.00;5073037;28;20223;-65
2020/12/12 04:31:48;;;;;;;9.50;8.27;;;;;;;6.91;66.40;94529.06;5073281;28;20819;-64
2020/12/12 04:34:13;;;;;;;11.07;8.37;;;;;;;6.94;66.26;94535.66;5073886;28;20539;-64
2020/12/12 04:36:39;;;;;;;8.90;7.43;;;;;;;6.83;66.39;94532.63;5055334;28;20221;-65
2020/12/12 04:39:05;;;;;;;12.63;8.50;;;;;;;6.67;67.21;94533.78;5066547;28;20178;-67
2020/12/12 04:41:34;;;;;;;13.17;8.83;;;;;;;6.87;66.56;94533.03;5072130;28;20685;-66
2020/12/12 04:44:00;;;;;;;11.33;8.63;;;;;;;6.93;66.60;94534.09;5067334;28;20426;-66
2020/12/12 04:46:27;;;;;;;13.47;8.93;;;;;;;6.83;67.18;94532.63;5068969;28;20442;-67
2020/12/12 04:48:53;;;;;;;11.73;8.60;;;;;;;6.71;66.96;94527.19;5060881;28;20182;-67
2020/12/12 04:51:18;;;;;;;12.00;8.43;;;;;;;6.74;67.19;94537.19;5072133;28;20807;-65
2020/12/12 04:53:44;;;;;;;12.23;8.40;;;;;;;6.77;67.52;94538.63;5072144;28;20189;-65
2020/12/12 04:56:17;;;;;;;13.53;7.90;;;;;;;6.70;67.20;94535.19;5063656;28;20452;-65
2020/12/12 04:58:43;;;;;;;10.70;8.57;;;;;;;6.75;67.14;94546.63;5056967;28;20229;-65
2020/12/12 05:01:08;;;;;;;10.07;7.90;;;;;;;6.74;67.63;94547.59;5071645;28;20425;-66
2020/12/12 05:03:35;;;;;;;10.20;7.60;;;;;;;6.79;67.49;94541.84;5073039;28;20612;-64
2020/12/12 05:06:01;;;;;;;9.30;7.70;;;;;;;6.81;67.76;94542.44;5054644;28;20179;-65
2020/12/12 05:08:27;;;;;;;9.73;7.80;;;;;;;6.81;67.38;94545.03;5072402;28;20428;-65
2020/12/12 05:10:52;;;;;;;12.10;8.67;;;;;;;7.06;66.83;94544.53;5069940;28;20218;-67
2020/12/12 05:13:23;;;;;;;10.90;8.23;;;;;;;6.94;66.84;94543.47;5072358;28;20399;-65
2020/12/12 05:15:51;;;;;;;9.20;6.60;;;;;;;6.96;67.23;94544.09;5071634;28;20272;-65
2020/12/12 05:18:17;;;;;;;10.33;7.43;;;;;;;7.01;67.08;94541.72;5072794;28;20480;-64
2020/12/12 05:20:44;;;;;;;9.70;7.37;;;;;;;7.05;67.14;94540.34;5073523;28;20475;-65
2020/12/12 05:23:17;;;;;;;9.07;6.67;;;;;;;7.10;66.90;94540.53;5055737;28;20458;-65
2020/12/12 05:25:45;;;;;;;9.70;7.70;;;;;;;7.14;66.97;94544.38;5072876;28;20428;-65
2020/12/12 05:28:12;;;;;;;9.40;7.20;;;;;;;7.09;67.27;94545.97;5065917;28;20842;-66
2020/12/12 05:30:38;;;;;;;10.00;7.27;;;;;;;7.07;66.82;94553.94;5073749;28;20562;-66
2020/12/12 05:33:06;;;;;;;7.53;6.60;;;;;;;7.01;67.54;94552.13;5078620;28;20468;-65
2020/12/12 05:35:31;;;;;;;8.60;7.33;;;;;;;7.07;67.55;94551.34;5064033;28;20464;-66
2020/12/12 05:38:02;;;;;;;7.33;6.53;;;;;;;7.11;67.33;94549.19;5078749;28;20424;-66
2020/12/12 05:40:28;;;;;;;10.00;6.73;;;;;;;7.08;67.82;94550.34;5081996;28;20546;-66
2020/12/12 05:42:53;;;;;;;9.10;7.00;;;;;;;7.06;67.84;94547.94;5078694;28;20845;-65
2020/12/12 05:45:19;;;;;;;9.10;7.27;;;;;;;7.05;67.81;94550.75;5071929;28;20251;-65
2020/12/12 05:47:45;;;;;;;8.97;6.50;;;;;;;7.01;68.03;94549.53;5068799;28;20190;-66
2020/12/12 05:50:12;;;;;;;8.03;6.10;;;;;;;6.98;68.11;94549.91;5071180;28;20182;-66
2020/12/12 05:52:41;;;;;;;8.13;6.00;;;;;;;6.96;68.47;94551.91;5072208;28;20951;-66
2020/12/12 05:55:08;;;;;;;8.07;6.47;;;;;;;7.05;68.21;94543.75;5071676;28;20466;-66
2020/12/12 05:57:36;;;;;;;8.43;6.07;;;;;;;6.86;68.67;94553.06;5057741;28;20445;-66
2020/12/12 06:00:04;;;;;;;10.10;6.23;;;;;;;6.89;68.84;94552.69;5068399;28;20421;-65
2020/12/12 06:02:35;;;;;;;8.80;6.70;;;;;;;6.88;68.99;94558.91;5072032;28;20440;-67
2020/12/12 06:05:03;;;;;;;8.07;6.73;;;;;;;6.85;68.93;94561.88;5070248;28;20429;-68
2020/12/12 06:07:30;;;;;;;8.30;6.20;;;;;;;6.89;69.13;94562.28;5071668;28;20425;-66
2020/12/12 06:09:59;;;;;;;8.37;6.30;;;;;;;6.84;69.00;94562.09;5067511;28;20428;-66
2020/12/12 06:12:25;;;;;;;9.97;6.40;;;;;;;6.53;69.76;94564.13;5071467;28;20436;-66
2020/12/12 06:14:56;;;;;;;8.40;6.80;;;;;;;6.53;70.08;94566.75;5070964;28;20432;-66
2020/12/12 06:17:40;;;;;;;7.50;6.20;;;;;;;6.73;69.34;94559.03;5070953;28;20563;-66
2020/12/12 06:20:06;;;;;;;8.23;5.80;;;;;;;6.57;69.72;94572.34;5071474;28;20496;-66
2020/12/12 06:22:32;;;;;;;9.20;6.40;;;;;;;6.67;69.54;94570.22;5071534;28;21096;-66
2020/12/12 06:25:00;;;;;;;9.57;6.63;;;;;;;6.67;69.34;94570.22;5070955;28;20269;-66
2020/12/12 06:27:32;;;;;;;8.27;5.57;;;;;;;6.64;69.47;94569.78;5059390;28;20946;-65
2020/12/12 06:30:00;;;;;;;6.87;5.67;;;;;;;6.54;69.87;94575.34;5067954;28;20443;-66
2020/12/12 06:32:26;;;;;;;10.97;6.80;;;;;;;6.60;69.50;94580.59;5070045;28;20777;-66
2020/12/12 06:34:52;;;;;;;8.80;6.70;;;;;;;6.86;69.38;94573.91;5052591;28;20417;-65
2020/12/12 06:37:35;;;;;;;8.37;6.20;;;;;;;6.98;68.87;94579.38;5068718;28;20703;-66
2020/12/12 06:40:22;;;;;;;8.07;5.97;;;;;;;6.81;69.19;94581.47;5067178;28;20432;-66
2020/12/12 06:42:47;;;;;;;6.70;5.40;;;;;;;6.69;69.45;94572.59;5069008;28;20456;-66
2020/12/12 06:45:13;;;;;;;8.13;6.23;;;;;;;6.80;68.82;94577.28;5069326;28;20439;-65
2020/12/12 06:47:41;;;;;;;6.77;5.00;;;;;;;6.80;69.12;94585.09;5066986;28;20286;-65
2020/12/12 06:50:08;;;;;;;13.20;6.80;;;;;;;6.89;69.03;94585.72;5070658;28;20204;-66
2020/12/12 06:52:34;;;;;;;7.10;5.90;;;;;;;6.94;68.74;94593.78;5070305;28;20484;-66
2020/12/12 06:55:11;;;;;;;7.00;5.70;;;;;;;6.93;68.77;94599.19;5070965;28;20413;-66
2020/12/12 06:57:39;;;;;;;9.20;5.70;;;;;;;6.99;68.69;94603.59;5053074;28;20182;-66
2020/12/12 07:00:27;;;;;;;7.47;5.70;;;;;;;7.19;68.01;94598.47;5068471;28;20409;-66
2020/12/12 07:02:58;;;;;;;8.67;6.60;;;;;;;7.21;67.93;94607.69;5066156;28;20445;-66
2020/12/12 07:05:26;;;;;;;6.90;5.87;;;;;;;7.15;68.32;94608.50;5068398;28;20504;-66
2020/12/12 07:07:52;;;;;;;7.03;5.47;;;;;;;7.19;67.64;94617.50;5050636;28;20436;-66
2020/12/12 07:10:18;;;;;;;7.17;6.00;;;;;;;7.15;67.81;94615.47;5067684;28;20926;-66
2020/12/12 07:12:45;;;;;;;8.33;5.93;;;;;;;7.22;67.44;94617.13;5071666;28;20244;-66
2020/12/12 07:15:11;;;;;;;8.50;6.30;;;;;;;7.28;67.17;94630.38;5071369;28;20448;-67
2020/12/12 07:17:36;;;;;;;7.40;5.60;;;;;;;7.32;67.09;94627.19;5070914;28;20428;-66
2020/12/12 07:20:03;;;;;;;8.50;6.13;;;;;;;7.38;67.06;94636.81;5069208;28;20804;-66
2020/12/12 07:22:29;;;;;;;7.90;6.40;;;;;;;7.24;67.47;94637.78;5057716;28;20210;-67
2020/12/12 07:24:58;;;;;;;7.33;5.70;;;;;;;7.29;66.86;94632.78;5065222;28;20424;-67
2020/12/12 07:27:25;;;;;;;6.83;5.73;;;;;;;7.11;67.59;94635.91;5069123;28;20444;-66
2020/12/12 07:29:51;;;;;;;7.73;6.10;;;;;;;7.28;67.16;94638.97;5070598;28;20452;-67
2020/12/12 07:32:17;;;;;;;7.30;5.93;;;;;;;7.30;67.45;94644.03;5071298;28;20947;-67
2020/12/12 07:34:43;;;;;;;6.57;5.87;;;;;;;7.13;67.67;94646.13;5068880;28;20458;-67
2020/12/12 07:37:10;;;;;;;9.83;6.63;;;;;;;7.30;67.46;94646.63;5055102;28;20547;-67
2020/12/12 07:39:40;;;;;;;9.57;6.10;;;;;;;7.23;67.23;94650.00;5071096;28;20916;-67
2020/12/12 07:42:08;;;;;;;7.10;6.20;;;;;;;7.22;67.19;94645.78;5069108;28;20447;-68
2020/12/12 07:44:34;;;;;;;7.57;5.40;;;;;;;7.30;67.35;94654.44;5071103;28;20453;-67
2020/12/12 07:47:08;;;;;;;7.10;5.47;;;;;;;7.01;67.81;94669.31;5066835;28;20460;-67
2020/12/12 07:49:37;;;;;;;7.20;5.70;;;;;;;7.04;68.30;94668.94;5069765;28;20416;-68
2020/12/12 07:52:13;;;;;;;7.07;6.00;;;;;;;7.22;67.64;94666.63;5070859;28;20498;-67
2020/12/12 07:54:45;;;;;;;11.40;6.40;;;;;;;7.21;67.26;94670.22;5057802;28;20535;-67
2020/12/12 07:57:12;;;;;;;7.50;5.73;;;;;;;7.33;67.14;94669.66;5074880;28;20460;-66
2020/12/12 07:59:39;;;;;;;7.10;5.50;;;;;;;7.30;67.66;94672.69;5074242;28;20420;-66
2020/12/12 08:02:05;;;;;;;6.80;5.70;;;;;;;7.18;67.90;94675.81;5074189;28;20490;-66
2020/12/12 08:04:32;;;;;;;10.03;6.00;;;;;;;7.15;67.53;94681.41;5075013;28;20437;-66
2020/12/12 08:07:02;;;;;;;9.40;6.00;;;;;;;7.22;67.42;94684.84;5057996;28;20509;-67
2020/12/12 08:09:28;;;;;;;8.27;6.50;;;;;;;7.34;66.93;94689.50;5053758;28;20492;-67
2020/12/12 08:11:58;;;;;;;6.67;5.90;;;;;;;7.41;67.19;94685.16;5073757;28;20452;-66
2020/12/12 08:14:25;;;;;;;7.63;6.23;;;;;;;7.49;67.39;94692.00;5073647;28;20190;-66
2020/12/12 08:16:55;;;;;;;9.77;6.77;;;;;;;7.64;66.63;94695.25;5073802;28;20456;-68
2020/12/12 08:19:21;;;;;;;7.40;5.77;;;;;;;7.65;66.59;94701.28;5073520;28;20520;-66
2020/12/12 08:21:50;;;;;;;7.87;6.33;;;;;;;7.74;66.87;94700.09;5073829;28;20523;-65
2020/12/12 08:24:16;;;;;;;11.03;6.57;;;;;;;7.81;66.28;94700.91;5072899;28;20236;-65
2020/12/12 08:26:42;;;;;;;7.13;5.90;;;;;;;7.84;66.30;94702.34;5072844;28;20907;-65
2020/12/12 08:29:08;;;;;;;5.93;5.33;;;;;;;7.52;66.64;94713.25;5073587;28;20413;-66
2020/12/12 08:31:39;;;;;;;7.90;5.20;;;;;;;7.53;67.43;94707.06;5067865;28;20254;-66
2020/12/12 08:34:05;;;;;;;8.97;6.47;;;;;;;7.63;66.73;94713.69;5073233;28;20445;-66
2020/12/12 08:36:31;;;;;;;9.53;4.90;;;;;;;7.60;66.63;94714.06;5067035;28;20457;-66
2020/12/12 08:39:03;;;;;;;6.40;5.43;;;;;;;7.74;66.48;94718.34;5070514;28;20486;-66
2020/12/12 08:41:35;;;;;;;5.60;4.97;;;;;;;7.68;66.55;94725.16;5057226;28;20764;-67
2020/12/12 08:44:01;;;;;;;6.33;5.20;;;;;;;7.74;66.20;94726.16;5048089;28;20461;-68
2020/12/12 08:46:27;;;;;;;7.70;5.47;;;;;;;7.79;66.89;94736.00;5057796;28;20431;-67
2020/12/12 08:48:54;;;;;;;8.80;6.60;;;;;;;7.94;66.80;94741.09;5073276;28;20504;-69
2020/12/12 08:51:28;;;;;;;12.10;6.60;;;;;;;8.12;65.86;94749.16;5065640;28;20221;-68
2020/12/12 08:53:54;;;;;;;14.13;7.10;;;;;;;8.20;65.82;94750.78;5072316;28;20460;-67
2020/12/12 08:56:19;;;;;;;7.47;5.60;;;;;;;7.98;66.94;94750.13;5069391;28;20468;-67
2020/12/12 08:58:53;;;;;;;7.40;5.80;;;;;;;8.19;66.69;94754.38;5072980;28;20435;-69
2020/12/12 09:01:29;;;;;;;7.93;5.27;;;;;;;8.31;65.81;94752.03;5060007;28;20653;-66
2020/12/12 09:03:56;;;;;;;6.87;5.23;;;;;;;8.20;66.13;94756.00;5073388;28;20442;-67
2020/12/12 09:06:23;;;;;;;7.27;6.17;;;;;;;8.26;65.49;94755.19;5063014;28;20510;-68
2020/12/12 09:09:11;;;;;;;7.43;5.23;;;;;;;8.13;65.91;94758.59;5067748;28;20433;-66
2020/12/12 09:11:38;;;;;;;5.77;4.73;;;;;;;8.05;66.59;94768.41;5072253;28;20444;-67
2020/12/12 09:14:05;;;;;;;9.07;6.37;;;;;;;8.15;65.74;94769.63;5073558;28;20433;-67
2020/12/12 09:16:31;;;;;;;7.20;5.60;;;;;;;8.18;65.92;94770.25;5073328;28;20457;-67
2020/12/12 09:18:57;;;;;;;6.20;5.00;;;;;;;7.97;66.62;94779.78;5074016;28;20428;-68
2020/12/12 09:21:24;;;;;;;7.23;5.80;;;;;;;7.96;66.73;94783.41;5072456;28;20594;-67
2020/12/12 09:23:50;;;;;;;7.40;5.90;;;;;;;8.05;67.01;94784.03;5064341;28;20945;-67
2020/12/12 09:26:17;;;;;;;8.37;5.60;;;;;;;7.95;66.95;94784.41;5052131;28;20467;-67
2020/12/12 09:28:43;;;;;;;9.07;5.60;;;;;;;8.25;66.34;94784.09;5047974;28;20583;-67
2020/12/12 09:31:08;;;;;;;6.00;5.33;;;;;;;8.26;65.88;94783.91;5053401;28;20428;-68
2020/12/12 09:33:34;;;;;;;6.83;6.13;;;;;;;8.36;65.28;94786.13;5057421;28;20174;-68
2020/12/12 09:36:03;;;;;;;6.63;5.60;;;;;;;8.48;65.18;94788.19;5048272;28;20203;-67
2020/12/12 09:38:29;;;;;;;8.80;5.80;;;;;;;8.18;65.97;94783.28;5050635;28;20186;-69
2020/12/12 09:40:56;;;;;;;5.93;5.03;;;;;;;8.30;65.63;94789.56;5051190;28;20414;-68
2020/12/12 09:43:21;;;;;;;6.33;5.40;;;;;;;8.24;65.99;94792.94;5046684;28;20215;-68
2020/12/12 09:45:47;;;;;;;6.83;5.37;;;;;;;8.63;65.62;94806.31;5052435;28;20441;-69
2020/12/12 09:48:14;;;;;;;6.00;4.83;;;;;;;8.59;65.08;94806.72;5073011;28;20186;-68
2020/12/12 09:50:40;;;;;;;7.40;5.10;;;;;;;8.45;65.60;94811.03;5070442;28;20218;-69
2020/12/12 09:53:09;;;;;;;5.60;4.67;;;;;;;8.50;65.61;94815.72;5071843;28;20451;-68
2020/12/12 09:55:36;;;;;;;5.63;4.30;;;;;;;9.13;64.31;94813.75;5071845;28;20486;-67
2020/12/12 09:58:06;;;;;;;8.30;3.40;;;;;;;10.80;63.91;94812.41;5071938;28;20428;-67
2020/12/12 10:00:33;;;;;;;5.40;4.30;;;;;;;10.23;58.71;94820.94;5071892;28;20425;-66
2020/12/12 10:02:59;;;;;;;4.40;4.00;;;;;;;9.82;60.12;94814.28;5071526;28;20977;-65
2020/12/12 10:05:25;;;;;;;4.73;4.10;;;;;;;9.28;61.46;94814.38;5071749;28;20424;-67
2020/12/12 10:07:53;;;;;;;5.00;3.87;;;;;;;8.90;63.55;94817.59;5055875;28;20533;-65
2020/12/12 10:10:19;;;;;;;5.80;4.60;;;;;;;8.98;63.21;94820.00;5051320;28;20209;-66
2020/12/12 10:12:45;;;;;;;5.23;4.73;;;;;;;9.11;63.25;94823.59;5071464;28;20638;-66
2020/12/12 10:15:11;;;;;;;4.47;4.07;;;;;;;9.11;63.05;94821.00;5070608;28;20605;-66
2020/12/12 10:17:36;;;;;;;4.90;4.07;;;;;;;9.05;63.41;94826.03;5071724;28;20290;-67
2020/12/12 10:20:03;;;;;;;4.83;3.73;;;;;;;9.02;63.33;94833.44;5069247;28;20182;-68
2020/12/12 10:22:28;;;;;;;5.20;4.00;;;;;;;8.80;64.44;94831.03;5071456;28;20202;-67
2020/12/12 10:24:54;;;;;;;8.13;4.33;;;;;;;8.79;63.91;94831.25;5071914;28;20432;-67
2020/12/12 10:27:20;;;;;;;5.20;3.70;;;;;;;9.07;63.48;94833.66;5071641;28;20186;-66
2020/12/12 10:29:45;;;;;;;6.53;5.17;;;;;;;9.06;63.88;94839.88;5069755;28;20529;-67
2020/12/12 10:32:11;;;;;;;4.73;3.90;;;;;;;9.16;63.94;94831.66;5070082;28;20760;-67
2020/12/12 10:34:37;;;;;;;4.10;3.70;;;;;;;9.22;63.75;94841.28;5071876;28;20261;-69
2020/12/12 10:37:02;;;;;;;3.90;3.43;;;;;;;9.04;64.77;94840.09;5056679;28;20207;-68
2020/12/12 10:39:40;;;;;;;3.87;3.50;;;;;;;9.03;64.18;94841.09;5058758;28;20186;-67
2020/12/12 10:42:05;;;;;;;4.17;3.57;;;;;;;8.97;64.55;94843.72;5070585;28;20198;-66
2020/12/12 10:44:31;;;;;;;3.97;3.60;;;;;;;8.80;65.09;94848.53;5071590;28;20903;-67
2020/12/12 10:46:58;;;;;;;4.80;3.83;;;;;;;8.95;65.18;94850.94;5067040;28;20186;-68
2020/12/12 10:49:24;;;;;;;4.60;3.80;;;;;;;8.99;64.45;94850.34;5069837;28;20456;-69
2020/12/12 10:51:53;;;;;;;4.93;3.80;;;;;;;9.16;64.17;94845.50;5071235;28;20880;-66
2020/12/12 10:54:19;;;;;;;3.90;3.40;;;;;;;9.38;63.72;94846.13;5071263;28;20186;-66
2020/12/12 10:56:45;;;;;;;7.73;3.93;;;;;;;9.40;63.91;94852.97;5070787;28;20532;-67
2020/12/12 10:59:11;;;;;;;5.60;3.40;;;;;;;9.52;63.40;94846.91;5071848;28;20428;-67
2020/12/12 11:01:37;;;;;;;5.00;3.37;;;;;;;9.69;62.50;94849.09;5070454;28;20805;-68
2020/12/12 11:04:03;;;;;;;3.90;3.40;;;;;;;9.55;62.49;94855.34;5070196;28;20438;-65
2020/12/12 11:06:29;;;;;;;4.80;3.83;;;;;;;9.21;63.32;94860.59;5059498;28;20234;-67
2020/12/12 11:08:55;;;;;;;5.70;4.03;;;;;;;8.90;64.90;94865.38;5065357;28;20426;-67
2020/12/12 11:11:20;;;;;;;3.63;3.23;;;;;;;9.36;63.96;94858.59;5054253;28;20201;-68
2020/12/12 11:13:46;;;;;;;3.83;3.43;;;;;;;9.31;63.98;94861.00;5071781;28;20189;-68
2020/12/12 11:16:20;;;;;;;3.90;3.50;;;;;;;9.42;64.06;94861.41;5071687;28;20206;-67
2020/12/12 11:18:51;;;;;;;7.40;4.07;;;;;;;9.41;64.13;94859.78;5072232;28;20239;-67
2020/12/12 11:21:24;;;;;;;7.73;3.27;;;;;;;9.16;65.07;94857.78;5071766;28;20420;-67
2020/12/12 11:23:50;;;;;;;3.70;3.20;;;;;;;9.45;64.97;94861.00;5071816;28;20421;-66
2020/12/12 11:26:16;;;;;;;4.83;3.03;;;;;;;9.48;64.06;94866.63;5057631;28;20459;-70
2020/12/12 11:28:44;;;;;;;4.60;3.20;;;;;;;9.41;64.60;94859.78;5057133;28;20519;-67
2020/12/12 11:31:11;;;;;;;5.07;3.70;;;;;;;8.93;66.03;94861.59;5075318;28;20538;-66
2020/12/12 11:33:39;;;;;;;3.70;3.33;;;;;;;8.76;66.39;94867.19;5075959;28;20471;-68
2020/12/12 11:36:19;;;;;;;7.90;4.17;;;;;;;9.08;66.40;94866.63;5070632;28;20819;-68
2020/12/12 11:48:49;;;;;;;5.27;4.27;;;;;;;9.53;66.11;94876.47;5074692;28;20307;-68